Tampa, Florida
Traffic Map
Current Weather Conditions
Tampa, Florida
Few Clouds
Few Clouds
12°
Feels Like: 12°
Wind Chill: 12° Ceiling: Unl
Heat Index: 12° Visibility: 10mi
Dew Point: Wind: 5mph
Humidity: 74% Direction: 310° (NW)
Pressure: 30.06in Gusts: 0mph
Raw Report DataKTPA 250253Z 31004KT 10SM FEW015 12/07 A3006 RMK AO2 SLP179 T01170072 51016
Traffic Incident Summary
Active as of:
Severity:
Category:
InformationThere was an issue retrieving the traffic information for this location. Please try a different location or try again shortly.
Advertisements
Track Severe Weather on mobile